createdAt,value
2019-04-06T08:18:45.372Z,5.90
2019-04-06T08:19:45.456Z,6.30
2019-04-06T08:20:45.191Z,5.40
2019-04-06T08:21:45.522Z,5.90
2019-04-06T08:22:45.177Z,5.60
2019-04-06T08:23:45.470Z,5.90
2019-04-06T08:24:45.201Z,6.20
2019-04-06T08:25:45.210Z,5.60
2019-04-06T08:26:46.294Z,6.00
2019-04-06T08:27:45.228Z,5.60
2019-04-06T08:28:45.168Z,5.40
2019-04-06T08:29:45.175Z,5.70
2019-04-06T08:30:46.663Z,5.40
2019-04-06T08:31:45.225Z,5.70
2019-04-06T08:32:45.410Z,6.00
2019-04-06T08:33:45.218Z,5.90
2019-04-06T08:34:45.217Z,5.90
2019-04-06T08:35:46.279Z,6.20
2019-04-06T08:36:46.053Z,5.70
2019-04-06T08:37:46.471Z,5.80
2019-04-06T08:38:46.147Z,5.10
2019-04-06T08:39:46.623Z,6.00
2019-04-06T08:40:46.137Z,5.60
2019-04-06T08:41:46.102Z,5.90
2019-04-06T08:42:46.444Z,6.70
2019-04-06T08:43:46.375Z,6.60
2019-04-06T08:44:46.773Z,7.30
2019-04-06T08:45:46.445Z,6.60
2019-04-06T08:46:46.647Z,6.40
2019-04-06T08:47:46.479Z,6.40
2019-04-06T08:48:46.139Z,7.10
2019-04-06T08:49:46.336Z,7.00
2019-04-06T08:50:46.036Z,7.00
2019-04-06T08:51:46.202Z,6.70
2019-04-06T08:52:46.056Z,6.40
2019-04-06T08:53:46.443Z,6.50
2019-04-06T08:54:46.425Z,7.00
2019-04-06T08:55:46.391Z,7.00
2019-04-06T08:56:46.142Z,6.60
2019-04-06T08:59:24.285Z,6.60
2019-04-06T09:00:24.484Z,6.40
2019-04-06T09:01:24.226Z,7.10
2019-04-06T09:02:24.246Z,9.20
2019-04-06T09:03:24.105Z,9.90
2019-04-06T09:04:24.119Z,9.60
2019-04-06T09:05:24.159Z,9.20
2019-04-06T09:06:24.255Z,9.70
2019-04-06T09:07:24.138Z,8.90
2019-04-06T09:08:24.096Z,9.40
2019-04-06T09:09:24.275Z,11.00
2019-04-06T09:10:24.099Z,9.90
2019-04-06T09:11:24.174Z,10.40
2019-04-06T09:12:24.118Z,10.50
2019-04-06T09:13:24.310Z,10.50
2019-04-06T09:14:24.126Z,10.60
2019-04-06T09:15:24.269Z,9.70
2019-04-06T09:16:24.614Z,10.90
2019-04-06T09:17:24.217Z,10.40
2019-04-06T09:18:24.170Z,10.70
2019-04-06T09:19:24.122Z,10.60
2019-04-06T09:20:24.175Z,9.80
2019-04-06T09:21:24.577Z,10.30
2019-04-06T09:22:24.160Z,10.20
2019-04-06T09:23:24.160Z,10.90
2019-04-06T09:24:24.128Z,10.40
2019-04-06T09:25:24.172Z,10.90
2019-04-06T09:26:24.427Z,11.10
2019-04-06T09:27:24.053Z,11.00
2019-04-06T09:28:24.588Z,11.10
2019-04-06T09:29:24.870Z,10.30
2019-04-06T09:30:26.976Z,10.60
2019-04-06T09:31:24.119Z,9.50
2019-04-06T09:32:24.337Z,10.10
2019-04-06T09:33:24.519Z,9.40
2019-04-06T09:34:24.378Z,9.60
2019-04-06T09:35:24.569Z,9.50
2019-04-06T09:36:24.465Z,9.40
2019-04-06T09:37:24.213Z,8.90
2019-04-06T09:38:24.460Z,9.20
2019-04-06T09:39:24.162Z,8.90
2019-04-06T09:40:24.139Z,8.70
2019-04-06T09:41:26.144Z,9.30
2019-04-06T09:42:24.456Z,9.00
2019-04-06T09:43:24.408Z,8.90
2019-04-06T09:44:24.257Z,9.40
2019-04-06T09:45:24.174Z,9.10
2019-04-06T09:46:24.475Z,9.60
2019-04-06T09:47:24.268Z,9.30
2019-04-06T09:48:24.181Z,9.80
2019-04-06T09:49:24.186Z,9.20
2019-04-06T09:50:24.250Z,10.00
2019-04-06T09:51:24.559Z,9.60
2019-04-06T09:52:24.188Z,10.40
2019-04-06T09:53:24.232Z,9.20
2019-04-06T09:54:24.578Z,9.60
2019-04-06T09:55:24.450Z,9.50
2019-04-06T09:56:24.409Z,10.00
2019-04-06T09:57:24.123Z,9.40
2019-04-06T09:58:24.681Z,9.70
2019-04-06T09:59:34.677Z,9.40
2019-04-06T10:00:24.367Z,9.20
2019-04-06T10:01:24.528Z,9.30
2019-04-06T10:02:24.645Z,8.20
2019-04-06T10:03:24.529Z,8.80
2019-04-06T10:04:24.298Z,9.20
2019-04-06T10:05:24.319Z,8.80
2019-04-06T10:06:24.312Z,9.10
2019-04-06T10:07:24.267Z,8.60
2019-04-06T10:08:24.201Z,9.30
2019-04-06T10:09:24.876Z,9.00
2019-04-06T10:10:24.241Z,8.90
2019-04-06T10:11:24.747Z,9.00
2019-04-06T10:12:24.632Z,9.30
2019-04-06T10:13:24.470Z,9.50
2019-04-06T10:14:24.476Z,10.50
2019-04-06T10:15:24.223Z,10.10
2019-04-06T10:16:24.242Z,9.60
2019-04-06T10:17:24.284Z,10.00
2019-04-06T10:18:24.519Z,11.10
2019-04-06T10:19:24.495Z,11.50
2019-04-06T10:20:24.206Z,11.30
2019-04-06T10:21:24.235Z,11.00
2019-04-06T10:22:24.278Z,10.90
2019-04-06T10:23:24.251Z,11.10
2019-04-06T10:24:24.210Z,11.80
2019-04-06T10:25:24.513Z,10.70
2019-04-06T10:26:24.503Z,10.70
2019-04-06T10:27:24.567Z,10.50
2019-04-06T10:28:24.441Z,10.80
2019-04-06T10:29:24.407Z,9.70
2019-04-06T10:30:24.150Z,10.10
2019-04-06T10:31:24.431Z,10.20
2019-04-06T10:32:24.132Z,9.40
2019-04-06T10:33:24.148Z,9.20
2019-04-06T10:34:24.564Z,9.00
2019-04-06T10:35:24.265Z,9.30
2019-04-06T10:36:24.648Z,9.70
2019-04-06T10:37:24.572Z,9.50
2019-04-06T10:38:24.359Z,9.60
2019-04-06T10:39:24.380Z,9.50
2019-04-06T10:40:24.688Z,9.90
2019-04-06T10:41:24.298Z,9.30
2019-04-06T10:42:24.328Z,9.80
2019-04-06T10:43:24.291Z,9.70
2019-04-06T10:44:24.392Z,9.60
2019-04-06T10:45:24.260Z,9.60
2019-04-06T10:46:24.567Z,9.20
2019-04-06T10:47:24.335Z,9.30
2019-04-06T10:48:24.629Z,9.30
2019-04-06T10:49:25.827Z,9.70
2019-04-06T10:50:24.642Z,9.10
2019-04-06T10:51:24.300Z,10.10
2019-04-06T10:52:24.246Z,9.80
2019-04-06T10:53:24.344Z,9.70
2019-04-06T10:54:24.637Z,9.60
2019-04-06T10:55:24.562Z,9.20
2019-04-06T10:56:24.493Z,9.60
2019-04-06T10:57:24.598Z,9.30
2019-04-06T10:58:24.367Z,9.30
2019-04-06T10:59:24.355Z,8.90
2019-04-06T11:00:24.403Z,9.30
2019-04-06T11:01:24.895Z,9.00
2019-04-06T11:02:24.505Z,9.20
2019-04-06T11:03:24.626Z,9.00
2019-04-06T11:04:24.557Z,9.20
2019-04-06T11:05:24.469Z,8.70
2019-04-06T11:06:24.172Z,9.20
2019-04-06T11:07:24.333Z,9.40
2019-04-06T11:08:24.554Z,9.70
2019-04-06T11:09:24.623Z,9.10
2019-04-06T11:10:24.381Z,9.40
2019-04-06T11:11:24.610Z,9.10
2019-04-06T11:12:24.338Z,8.90
2019-04-06T11:13:24.583Z,8.80
2019-04-06T11:14:24.275Z,9.10
2019-04-06T11:15:24.677Z,9.70
2019-04-06T11:16:24.546Z,9.60
2019-04-06T11:17:24.359Z,9.10
2019-04-06T11:18:24.330Z,13.50
2019-04-06T11:19:24.644Z,13.20
2019-04-06T11:20:24.643Z,12.30
2019-04-06T11:21:24.413Z,12.90
2019-04-06T11:22:24.623Z,13.50
2019-04-06T11:23:24.556Z,13.40
2019-04-06T11:24:25.008Z,13.10
2019-04-06T11:25:24.391Z,13.10
2019-04-06T11:26:24.421Z,13.60
2019-04-06T11:27:24.657Z,12.90
2019-04-06T11:28:24.864Z,12.60
2019-04-06T11:29:24.607Z,12.40
2019-04-06T11:30:24.644Z,12.40
2019-04-06T11:31:24.759Z,12.20
2019-04-06T11:32:24.715Z,12.60
2019-04-06T11:33:24.452Z,12.40
2019-04-06T11:34:24.534Z,11.70
2019-04-06T11:35:24.848Z,12.00
2019-04-06T11:36:25.076Z,12.70
2019-04-06T11:37:24.754Z,11.90
2019-04-06T11:38:24.618Z,11.60
2019-04-06T11:39:24.511Z,11.90
2019-04-06T11:40:24.391Z,11.80
2019-04-06T11:41:24.808Z,11.90
2019-04-06T11:42:24.853Z,11.70
2019-04-06T11:43:24.809Z,11.80
2019-04-06T11:44:24.531Z,11.60
2019-04-06T11:45:24.775Z,11.20
2019-04-06T11:46:24.526Z,11.60
2019-04-06T11:47:24.572Z,12.00
2019-04-06T11:48:25.038Z,11.50
2019-04-06T11:49:24.545Z,11.90
2019-04-06T11:50:24.740Z,11.60
2019-04-06T11:51:24.686Z,11.90
2019-04-06T11:52:24.627Z,12.50
2019-04-06T11:53:25.144Z,11.90
2019-04-06T11:54:26.034Z,12.40
2019-04-06T11:55:25.518Z,12.60
2019-04-06T11:56:25.373Z,11.90
2019-04-06T11:57:24.859Z,12.00
2019-04-06T11:58:24.756Z,11.90
2019-04-06T11:59:24.971Z,11.30
2019-04-06T12:00:27.214Z,11.20
2019-04-06T12:01:25.031Z,11.00
2019-04-06T12:02:25.156Z,10.60
2019-04-06T12:03:24.802Z,10.90
2019-04-06T12:04:25.336Z,10.80
2019-04-06T12:05:24.975Z,12.00
2019-04-06T12:06:24.752Z,11.10
2019-04-06T12:07:25.099Z,11.60
2019-04-06T12:08:24.986Z,12.10
2019-04-06T12:09:25.070Z,12.40
2019-04-06T12:10:25.066Z,12.80
2019-04-06T12:11:24.761Z,12.90
2019-04-06T12:34:33.242Z,0.00
2019-04-06T12:35:33.236Z,0.00
2019-04-06T12:36:33.292Z,0.00
2019-04-06T12:37:33.256Z,0.00
2019-04-06T12:38:33.382Z,0.00
2019-04-06T12:39:33.260Z,0.00
2019-04-06T12:40:33.649Z,18.00
2019-04-06T12:41:33.337Z,16.80
2019-04-06T12:42:33.314Z,14.90
2019-04-06T12:43:33.693Z,15.10
2019-04-06T12:44:33.388Z,15.60
2019-04-06T12:45:33.732Z,15.90
2019-04-06T12:46:33.567Z,15.10
2019-04-06T12:47:33.392Z,15.30
2019-04-06T12:48:33.547Z,15.10
2019-04-06T12:49:33.686Z,14.50
2019-04-06T12:50:33.787Z,14.70
2019-04-06T12:51:33.851Z,14.30
2019-04-06T12:52:34.146Z,14.90
2019-04-06T12:53:35.051Z,15.40
2019-04-06T12:54:34.176Z,14.70
2019-04-06T12:55:33.801Z,15.80
2019-04-06T12:56:33.446Z,15.00
2019-04-06T12:57:33.781Z,15.40
2019-04-06T12:58:33.935Z,15.10
2019-04-06T12:59:35.967Z,15.50
2019-04-06T13:00:33.803Z,14.80
2019-04-06T13:01:33.831Z,14.10
2019-04-06T13:02:33.784Z,14.40
2019-04-06T13:03:33.789Z,14.90
2019-04-06T13:04:33.807Z,15.00
2019-04-06T13:05:33.589Z,15.30
2019-04-06T13:06:33.621Z,15.70
2019-04-06T13:07:34.788Z,15.80
2019-04-06T13:08:33.713Z,15.70
2019-04-06T13:09:33.897Z,15.70
2019-04-06T13:10:33.674Z,15.60
2019-04-06T13:11:33.538Z,14.90
2019-04-06T13:12:33.527Z,15.10
2019-04-06T13:13:33.591Z,15.70
2019-04-06T13:14:33.534Z,16.10
2019-04-06T13:15:34.177Z,15.70
2019-04-06T13:16:33.597Z,15.80
2019-04-06T13:17:33.833Z,15.40
2019-04-06T13:18:33.754Z,15.00
2019-04-06T13:19:33.551Z,15.20
2019-04-06T13:20:33.742Z,15.00
2019-04-06T13:21:33.814Z,15.40
2019-04-06T13:22:33.774Z,14.90
2019-04-06T13:23:34.149Z,14.60
2019-04-06T13:24:33.644Z,16.70
2019-04-06T13:25:33.935Z,15.00
2019-04-06T13:26:33.885Z,15.40
2019-04-06T13:27:33.534Z,13.80
2019-04-06T13:28:33.565Z,15.70
2019-04-06T13:29:33.938Z,15.30
2019-04-06T13:30:33.570Z,15.30
2019-04-06T13:31:33.889Z,15.00
2019-04-06T13:32:33.631Z,14.30
2019-04-06T13:33:33.674Z,14.70
2019-04-06T13:34:33.559Z,14.70
2019-04-06T13:35:33.593Z,15.00
2019-04-06T13:36:33.794Z,14.30
2019-04-06T13:37:33.488Z,16.20
2019-04-06T13:38:36.898Z,16.20
2019-04-06T14:12:36.334Z,11.70
2019-04-06T14:13:36.334Z,11.50
2019-04-06T14:14:36.285Z,11.70
2019-04-06T14:15:37.017Z,13.20
2019-04-06T14:16:36.259Z,12.80
2019-04-06T14:17:36.235Z,13.50
2019-04-06T14:18:36.599Z,12.90
2019-04-06T14:19:36.216Z,12.10
2019-04-06T14:20:36.144Z,12.80
2019-04-06T14:21:36.346Z,13.00
2019-04-06T14:22:36.315Z,12.70
2019-04-06T14:23:36.481Z,12.90
2019-04-06T14:24:36.269Z,11.60
2019-04-06T14:25:36.654Z,10.10
2019-04-06T14:26:36.263Z,9.60
2019-04-06T14:27:36.250Z,10.00
2019-04-06T14:28:36.871Z,10.70
2019-04-06T14:29:36.346Z,10.60
2019-04-06T14:30:36.933Z,10.70
2019-04-06T14:31:36.246Z,9.80
2019-04-06T14:32:36.467Z,9.60
2019-04-06T14:33:36.309Z,10.30
2019-04-06T14:34:36.292Z,10.40
2019-04-06T14:35:36.413Z,9.70
2019-04-06T14:36:36.370Z,9.80
2019-04-06T14:37:36.833Z,10.00
2019-04-06T14:38:36.536Z,10.40
2019-04-06T14:39:37.814Z,11.40
2019-04-06T14:40:36.887Z,9.10
2019-04-06T14:41:36.377Z,10.30
2019-04-06T14:42:36.337Z,9.10
2019-04-06T14:43:36.523Z,9.40
2019-04-06T14:44:36.496Z,8.80
2019-04-06T14:45:37.830Z,8.40
2019-04-06T14:46:36.563Z,8.20
2019-04-06T14:47:37.187Z,8.90
2019-04-06T14:48:36.395Z,9.20
2019-04-06T14:49:36.763Z,8.40
2019-04-06T14:50:36.388Z,8.50
2019-04-06T14:51:36.467Z,8.50
2019-04-06T14:52:36.443Z,8.40
2019-04-06T14:53:36.336Z,9.20
2019-04-06T14:54:36.556Z,8.80
2019-04-06T14:55:39.285Z,9.10
2019-04-06T14:56:36.500Z,8.30
2019-04-06T14:57:36.440Z,8.10
2019-04-06T14:58:36.469Z,7.80
2019-04-06T14:59:36.676Z,7.80
2019-04-06T15:00:36.438Z,7.80
2019-04-06T15:01:45.415Z,7.50
2019-04-06T15:02:40.943Z,7.50
2019-04-06T15:03:36.715Z,7.60
2019-04-06T15:04:36.803Z,7.50
2019-04-06T15:05:36.651Z,7.50
2019-04-06T15:06:36.615Z,8.50
2019-04-06T15:07:36.933Z,9.20
2019-04-06T15:08:37.674Z,8.40
2019-04-06T15:21:02.492Z,7.30
2019-04-06T15:22:02.545Z,7.30
2019-04-06T15:23:02.853Z,7.50
2019-04-06T15:24:02.908Z,7.20
2019-04-06T15:25:02.911Z,8.00
2019-04-06T15:26:02.536Z,7.20
2019-04-06T15:27:02.491Z,7.10
2019-04-06T15:28:02.876Z,10.20
2019-04-06T15:29:04.036Z,6.70
2019-04-06T15:30:02.393Z,7.40
2019-04-06T15:31:02.565Z,77.80
2019-04-06T15:32:02.981Z,71.00
2019-04-06T15:33:02.374Z,98.20
2019-04-06T15:34:10.976Z,161.50
2019-04-06T15:35:02.978Z,292.90
2019-04-06T15:36:02.724Z,413.80
2019-04-06T15:37:02.496Z,133.00
2019-04-06T15:38:02.960Z,72.20
2019-04-06T15:39:02.318Z,441.00
2019-04-06T15:40:02.249Z,425.30
2019-04-06T15:41:02.910Z,37.90
2019-04-06T15:42:02.829Z,10.10
2019-04-06T15:43:02.351Z,16.60
2019-04-06T15:44:02.855Z,14.10
2019-04-06T15:45:02.886Z,18.60
2019-04-06T15:46:02.781Z,7.30
2019-04-06T15:47:02.916Z,8.90
2019-04-06T15:48:02.538Z,7.00
2019-04-06T15:49:03.039Z,6.50
2019-04-06T15:50:08.129Z,5.90
2019-04-06T15:51:02.294Z,7.20
2019-04-06T15:52:10.591Z,6.70
2019-04-06T15:53:02.824Z,6.00
2019-04-06T15:54:02.461Z,8.10
2019-04-06T15:55:02.524Z,6.20
2019-04-06T15:56:02.520Z,6.00
2019-04-06T15:57:04.162Z,6.50
2019-04-06T15:58:03.499Z,5.90
2019-04-06T15:59:09.889Z,5.80
2019-04-06T16:00:06.669Z,6.00
2019-04-06T16:01:02.846Z,5.30
2019-04-06T16:02:03.716Z,5.90
2019-04-06T16:03:03.458Z,5.70
2019-04-06T16:04:02.731Z,6.10
2019-04-06T16:05:03.022Z,5.40
2019-04-06T16:06:03.794Z,5.20
2019-04-06T16:07:05.088Z,5.90
2019-04-06T16:08:05.382Z,5.70
2019-04-06T16:09:07.009Z,6.60
2019-04-06T16:10:04.929Z,8.00
2019-04-06T16:11:03.371Z,5.60
2019-04-06T16:12:03.464Z,5.40
2019-04-06T16:13:09.185Z,6.00
2019-04-06T16:14:08.597Z,4.90
2019-04-06T16:15:07.648Z,5.20
2019-04-06T16:16:05.725Z,4.90
2019-04-06T16:17:05.536Z,5.30
2019-04-06T16:18:06.549Z,4.90
2019-04-06T16:19:11.885Z,5.20
2019-04-06T16:20:03.948Z,5.00
2019-04-06T16:21:05.165Z,4.90
2019-04-06T16:22:10.772Z,4.90
2019-04-06T16:23:03.081Z,4.90
2019-04-06T16:24:04.646Z,5.20
2019-04-06T16:25:11.919Z,5.40
2019-04-06T16:26:10.487Z,4.80
2019-04-06T16:27:03.487Z,5.30
2019-04-06T16:28:07.551Z,5.10
2019-04-06T16:29:05.192Z,5.10
2019-04-06T16:30:02.990Z,5.00
2019-04-06T16:31:08.916Z,5.30
2019-04-06T16:32:11.530Z,5.10
2019-04-06T16:33:03.197Z,5.00
2019-04-06T16:34:03.378Z,5.20
2019-04-06T16:35:07.777Z,5.40
2019-04-06T16:36:09.699Z,5.10
2019-04-06T16:37:02.577Z,5.20
2019-04-06T16:38:04.691Z,5.80
2019-04-06T16:39:03.757Z,5.30
2019-04-06T16:40:02.785Z,5.10
2019-04-06T16:41:02.924Z,5.30
2019-04-06T16:42:08.817Z,5.20
2019-04-06T16:43:02.954Z,5.00
2019-04-06T16:44:02.608Z,4.80
2019-04-06T16:45:13.803Z,5.30
2019-04-06T16:46:03.414Z,5.10
2019-04-06T16:47:02.959Z,5.00
2019-04-06T16:48:05.825Z,5.00
2019-04-06T16:49:03.893Z,4.80
2019-04-06T16:50:04.103Z,4.80
2019-04-06T16:51:03.291Z,4.70
2019-04-06T16:52:03.368Z,5.00
2019-04-06T16:53:09.296Z,5.00
2019-04-06T16:54:13.409Z,4.60
2019-04-06T16:55:04.251Z,4.70
2019-04-06T16:56:07.870Z,4.90
2019-04-06T16:59:18.868Z,4.30
2019-04-06T17:00:25.724Z,5.10
2019-04-06T17:01:14.765Z,4.80
2019-04-06T17:02:23.576Z,4.50
2019-04-06T17:03:14.222Z,4.50
2019-04-06T17:04:11.594Z,4.80
2019-04-06T17:07:17.031Z,4.30
2019-04-06T17:08:15.964Z,4.30
2019-04-06T17:09:18.118Z,4.30
2019-04-06T17:10:16.126Z,4.70
2019-04-06T17:11:16.133Z,3.90
2019-04-06T17:12:27.913Z,4.10
2019-04-06T17:13:19.993Z,4.10
2019-04-06T17:14:16.300Z,4.10
2019-04-06T17:15:16.545Z,4.20
2019-04-06T17:16:18.370Z,4.00
2019-04-06T17:17:17.568Z,3.90
2019-04-06T17:20:34.467Z,4.50
2019-04-06T17:22:49.422Z,4.20
2019-04-06T17:23:34.060Z,4.00
2019-04-06T17:56:27.461Z,4.70
2019-04-06T17:57:27.332Z,4.80
2019-04-06T17:58:27.731Z,4.70
2019-04-06T17:59:28.010Z,4.60
2019-04-06T18:00:29.217Z,4.40
2019-04-06T18:01:31.939Z,4.80
